This is the latest recevied weather packets stored in our database for station/object DL4JCP-6. If no packets are shown the sender has not sent any weather packets the latest 10 day(s).
| Time | Temp. | Humidity | Pressure | Rain* | Wind** | Luminosity | Snow |
|---|---|---|---|---|---|---|---|
| 1777845798 | 12.22° C | 71% | 1015.3 hPa | 0 mm | - | - | - |
| 1777844898 | 12.78° C | 70% | 1015.2 hPa | 0 mm | - | - | - |
| 1777843998 | 13.33° C | 67% | 1015.4 hPa | 0 mm | - | - | - |
| 1777843098 | 13.89° C | 67% | 1015.3 hPa | 0 mm | - | - | - |
| 1777842198 | 14.44° C | 63% | 1015.2 hPa | 0 mm | - | - | - |
| 1777839259 | 17.78° C | 51% | 1015.2 hPa | 0 mm | - | - | - |
| 1777838659 | 17.78° C | 51% | 1015.2 hPa | 0 mm | - | - | - |
| 1777838597 | 17.78° C | 51% | 1015.2 hPa | 0 mm | - | - | - |
| 1777835897 | 19.44° C | 42% | 1014.8 hPa | 0 mm | - | - | - |
| 1777834997 | 19.44° C | 42% | 1014.7 hPa | 0 mm | - | - | - |
| 1777834758 | 19.44° C | 41% | 1014.7 hPa | 0 mm | - | - | - |
| 1777832362 | 20° C | 41% | 1014.5 hPa | 0 mm | - | - | - |
| 1777832297 | 20° C | 41% | 1014.5 hPa | 0 mm | - | - | - |
| 1777829060 | 21.67° C | 39% | 1013.8 hPa | 0 mm | - | - | - |
| 1777827859 | 22.22° C | 37% | 1013.9 hPa | 0 mm | - | - | - |
| 1777826897 | 22.22° C | 37% | 1013.8 hPa | 0 mm | - | - | - |
| 1777826358 | 22.22° C | 37% | 1013.8 hPa | 0 mm | - | - | - |
| 1777826058 | 22.78° C | 37% | 1013.7 hPa | 0 mm | - | - | - |
| 1777825160 | 22.78° C | 36% | 1013.7 hPa | 0 mm | - | - | - |
| 1777825103 | 22.78° C | 36% | 1013.7 hPa | 0 mm | - | - | - |
| 1777824859 | 22.78° C | 37% | 1013.6 hPa | 0 mm | - | - | - |
| 1777824203 | 23.33° C | 36% | 1013.4 hPa | 0 mm | - | - | - |
| 1777821858 | 23.33° C | 35% | 1013.7 hPa | 0 mm | - | - | - |
| 1777821503 | 23.89° C | 35% | 1013.9 hPa | 0 mm | - | - | - |
| 1777818859 | 23.89° C | 34% | 1014.8 hPa | 0 mm | - | - | - |
* Rain latest hour (hover to see other rain measurements)
** Current wind speed in m/s (hover to see current wind gust speed)